Time;durP1;ratioP1;P1;durP2;ratioP2;P2;SDS_P1;SDS_P2;PMS_P1;PMS_P2;Temp;Humidity;BMP_temperature;BMP_pressure;BME280_temperature;BME280_humidity;BME280_pressure;Samples;Min_cycle;Max_cycle;Signal;HPM_P1;HPM_P2
2021/12/10 00:00:26;;;;;;;96.67;37.75;;;;;;;-1.58;82.06;99611.51;1746216;79;27392;-72
2021/12/10 00:02:53;;;;;;;106.92;40.25;;;;;;;-1.57;81.96;99614.56;1716530;81;99501;-71
2021/12/10 00:05:27;;;;;;;113.25;38.13;;;;;;;-1.57;82.04;99618.95;1718815;81;25762;-71
2021/12/10 00:07:55;;;;;;;92.92;36.77;;;;;;;-1.55;82.07;99618.48;1719445;81;25775;-71
2021/12/10 00:10:26;;;;;;;108.90;38.70;;;;;;;-1.56;82.00;99620.69;1744012;80;98916;-70
2021/12/10 00:12:53;;;;;;;106.95;37.10;;;;;;;-1.54;82.08;99620.23;1723009;81;28702;-71
2021/12/10 00:15:26;;;;;;;113.65;36.42;;;;;;;-1.53;82.10;99612.77;1720522;81;99681;-71
2021/12/10 00:17:55;;;;;;;106.87;38.00;;;;;;;-1.52;82.07;99614.51;1731884;80;25887;-71
2021/12/10 00:20:25;;;;;;;112.77;38.88;;;;;;;-1.54;82.03;99606.64;1759066;80;99679;-71
2021/12/10 00:22:57;;;;;;;117.60;40.33;;;;;;;-1.52;82.16;99602.24;1739901;81;25865;-70
2021/12/10 00:25:35;;;;;;;118.25;40.83;;;;;;;-1.48;82.18;99607.02;1734411;81;27582;-71
2021/12/10 00:28:00;;;;;;;110.48;39.23;;;;;;;-1.45;82.21;99593.40;1737796;80;99340;-70
2021/12/10 00:30:33;;;;;;;112.92;39.03;;;;;;;-1.45;82.14;99592.53;1757000;80;25886;-70
2021/12/10 00:33:10;;;;;;;105.22;38.02;;;;;;;-1.44;82.13;99599.52;1740700;80;99376;-73
2021/12/10 00:35:32;;;;;;;107.43;38.60;;;;;;;-1.45;82.12;99601.28;1744621;81;25800;-71
2021/12/10 00:37:59;;;;;;;112.42;39.10;;;;;;;-1.45;82.14;99603.91;1738748;80;99676;-71
2021/12/10 00:40:27;;;;;;;106.32;39.13;;;;;;;-1.44;82.14;99590.33;1734881;80;25953;-71
2021/12/10 00:42:55;;;;;;;104.90;37.08;;;;;;;-1.47;82.04;99585.11;1739739;80;25741;-71
2021/12/10 00:45:22;;;;;;;106.37;36.63;;;;;;;-1.48;82.14;99575.48;1731755;80;98826;-70
2021/12/10 00:47:50;;;;;;;101.12;38.10;;;;;;;-1.50;82.04;99570.25;1740827;81;25752;-71
2021/12/10 00:50:22;;;;;;;105.75;37.25;;;;;;;-1.54;82.08;99574.24;1741015;81;99072;-71
2021/12/10 00:52:49;;;;;;;106.95;37.83;;;;;;;-1.56;82.10;99557.63;1738607;81;25990;-73
2021/12/10 00:55:16;;;;;;;100.87;35.05;;;;;;;-1.57;82.13;99555.44;1747019;81;25784;-71
2021/12/10 00:57:43;;;;;;;110.95;38.60;;;;;;;-1.55;82.12;99564.62;1748259;80;99516;-70
2021/12/10 01:00:15;;;;;;;101.47;33.30;;;;;;;-1.59;82.13;99561.16;1768885;79;25858;-72
2021/12/10 01:02:41;;;;;;;107.50;37.20;;;;;;;-1.58;82.16;99552.83;1774132;79;99268;-72
2021/12/10 01:05:11;;;;;;;90.77;35.60;;;;;;;-1.57;82.25;99548.00;1756316;80;25965;-71
2021/12/10 01:07:38;;;;;;;109.07;37.10;;;;;;;-1.57;82.15;99549.31;1766215;79;25781;-71
2021/12/10 01:10:18;;;;;;;108.10;37.63;;;;;;;-1.58;82.19;99543.19;1769736;79;99002;-71
2021/12/10 01:12:49;;;;;;;113.47;39.88;;;;;;;-1.60;82.19;99542.34;1773608;79;25717;-71
2021/12/10 01:15:38;;;;;;;103.80;38.38;;;;;;;-1.59;82.26;99548.02;1770248;78;99569;-71
2021/12/10 01:23:48;;;;;;;101.20;36.20;;;;;;;-1.59;82.21;99533.57;1737936;81;26560;-71
2021/12/10 01:28:47;;;;;;;94.67;36.13;;;;;;;-1.69;82.12;99517.05;1748031;80;27406;-71
2021/12/10 01:31:14;;;;;;;102.87;36.58;;;;;;;-1.73;82.15;99503.97;1752253;80;25825;-73
2021/12/10 01:33:43;;;;;;;104.70;36.93;;;;;;;-1.75;82.14;99505.75;1750505;80;99105;-71
2021/12/10 01:36:10;;;;;;;102.35;34.10;;;;;;;-1.76;82.26;99510.12;1743564;80;25767;-72
2021/12/10 01:38:43;;;;;;;97.72;33.85;;;;;;;-1.76;82.19;99512.76;1748862;80;99260;-71
2021/12/10 01:41:14;;;;;;;97.67;35.10;;;;;;;-1.77;82.23;99503.58;1749638;80;27562;-72
2021/12/10 01:43:42;;;;;;;96.15;33.75;;;;;;;-1.77;82.20;99492.63;1740283;80;25814;-71
2021/12/10 01:46:14;;;;;;;91.12;33.50;;;;;;;-1.78;82.22;99487.40;1756828;79;99471;-71
2021/12/10 01:48:47;;;;;;;99.05;33.80;;;;;;;-1.80;82.20;99482.16;1772159;80;26800;-71
2021/12/10 01:51:18;;;;;;;97.15;34.80;;;;;;;-1.81;82.19;99482.18;1777536;79;99438;-72
2021/12/10 01:53:51;;;;;;;89.65;33.00;;;;;;;-1.85;82.18;99479.16;1742472;80;27485;-71
2021/12/10 01:56:22;;;;;;;101.85;36.17;;;;;;;-1.85;82.26;99472.16;1729051;80;99641;-71
2021/12/10 01:58:49;;;;;;;94.87;35.38;;;;;;;-1.84;82.32;99464.70;1766991;79;25883;-71
2021/12/10 02:01:23;;;;;;;99.07;36.77;;;;;;;-1.83;82.32;99450.69;1752243;80;25710;-71
2021/12/10 02:03:53;;;;;;;98.60;35.80;;;;;;;-1.86;82.28;99445.47;1764358;79;99475;-71
2021/12/10 02:06:21;;;;;;;98.78;36.08;;;;;;;-1.88;82.26;99445.94;1750377;80;27449;-71
2021/12/10 02:08:47;;;;;;;102.53;34.78;;;;;;;-1.90;82.27;99433.27;1747755;80;98890;-71
2021/12/10 02:11:15;;;;;;;102.47;36.00;;;;;;;-1.93;82.25;99426.73;1765818;80;25769;-70
2021/12/10 02:13:42;;;;;;;94.75;36.60;;;;;;;-1.94;82.27;99425.45;1773846;79;26111;-71
2021/12/10 02:16:09;;;;;;;96.80;35.83;;;;;;;-1.96;82.35;99428.09;1771654;79;99508;-71
2021/12/10 02:18:35;;;;;;;100.78;36.38;;;;;;;-1.94;82.37;99438.13;1770143;80;28472;-71
2021/12/10 02:21:09;;;;;;;99.20;36.05;;;;;;;-1.92;82.39;99448.17;1743123;80;98986;-71
2021/12/10 02:23:40;;;;;;;107.83;36.77;;;;;;;-1.93;82.35;99456.94;1746244;80;25823;-71
2021/12/10 02:26:08;;;;;;;;;;;;;;;-1.90;82.45;99459.52;1750659;80;99985;-73
2021/12/10 02:28:35;;;;;;;100.70;35.38;;;;;;;-1.90;82.39;99454.27;1744341;81;25797;-71
2021/12/10 02:31:03;;;;;;;112.15;36.83;;;;;;;-1.90;82.42;99455.59;1765382;80;27379;-71
2021/12/10 02:33:30;;;;;;;99.97;34.90;;;;;;;-1.87;82.47;99449.43;1757510;80;99729;-71
2021/12/10 02:35:57;;;;;;;105.27;36.83;;;;;;;-1.85;82.47;99451.59;1762638;80;26510;-71
2021/12/10 02:38:23;;;;;;;98.47;35.65;;;;;;;-1.83;82.46;99444.56;1753688;80;99080;-71
2021/12/10 02:40:52;;;;;;;92.45;34.45;;;;;;;-1.82;82.44;99438.42;1766962;80;25756;-71
2021/12/10 02:43:22;;;;;;;103.00;34.95;;;;;;;-1.82;82.40;99436.66;1757201;79;28258;-71
2021/12/10 02:45:53;;;;;;;107.35;37.20;;;;;;;-1.84;82.34;99434.95;1754005;80;99081;-73
2021/12/10 02:48:20;;;;;;;105.58;36.77;;;;;;;-1.83;82.47;99436.68;1743577;80;25686;-71
2021/12/10 02:50:47;;;;;;;103.30;34.70;;;;;;;-1.80;82.53;99436.20;1770163;79;99262;-74
2021/12/10 02:53:16;;;;;;;97.53;35.73;;;;;;;-1.76;82.57;99431.77;1771409;79;25769;-71
2021/12/10 02:55:44;;;;;;;113.03;36.50;;;;;;;-1.74;82.55;99428.23;1767694;79;28089;-71
2021/12/10 02:58:14;;;;;;;113.88;37.65;;;;;;;-1.72;82.54;99422.52;1770659;79;98994;-71
2021/12/10 03:00:51;;;;;;;100.95;36.10;;;;;;;-1.71;82.55;99412.44;1767762;79;25707;-71
2021/12/10 03:03:17;;;;;;;98.90;34.78;;;;;;;-1.70;82.49;99415.48;1762958;79;99148;-71
2021/12/10 03:05:44;;;;;;;111.77;36.48;;;;;;;-1.72;82.45;99418.58;1760066;79;25857;-71
2021/12/10 03:08:12;;;;;;;98.10;34.53;;;;;;;-1.71;82.56;99417.69;1763067;79;99222;-71
2021/12/10 03:10:41;;;;;;;103.07;35.38;;;;;;;-1.71;82.48;99411.57;1764637;79;25749;-71
2021/12/10 03:13:09;;;;;;;95.40;33.95;;;;;;;-1.72;82.55;99410.70;1761048;79;26500;-71
2021/12/10 03:15:36;;;;;;;98.07;36.15;;;;;;;-1.70;82.60;99414.63;1764691;79;98800;-71
2021/12/10 03:18:07;;;;;;;105.92;35.28;;;;;;;-1.68;82.62;99415.02;1767575;79;26410;-71
2021/12/10 03:20:35;;;;;;;102.38;37.13;;;;;;;-1.66;82.63;99415.88;1773338;80;99175;-71
2021/12/10 03:23:04;;;;;;;104.65;36.73;;;;;;;-1.65;82.67;99428.12;1767407;79;26405;-71
2021/12/10 03:25:30;;;;;;;98.72;35.05;;;;;;;-1.61;82.62;99425.45;1765657;79;26431;-73
2021/12/10 03:27:57;;;;;;;107.72;36.53;;;;;;;-1.62;82.58;99425.89;1768483;79;100606;-73
2021/12/10 03:30:28;;;;;;;111.05;38.00;;;;;;;-1.60;82.69;99417.99;1766469;79;25771;-73
2021/12/10 03:32:55;;;;;;;99.30;34.75;;;;;;;-1.58;82.73;99406.57;1737868;80;100811;-71
2021/12/10 03:35:28;;;;;;;98.72;36.20;;;;;;;-1.56;82.67;99393.41;1760928;80;25876;-71
2021/12/10 03:37:57;;;;;;;110.78;38.75;;;;;;;-1.55;82.70;99391.20;1745441;80;25781;-73
2021/12/10 03:40:24;;;;;;;100.15;36.45;;;;;;;-1.55;82.67;99395.15;1755192;80;97942;-71
2021/12/10 03:42:58;;;;;;;97.92;36.93;;;;;;;-1.54;82.67;99386.38;1748662;80;25867;-71
2021/12/10 03:45:20;;;;;;;110.90;37.03;;;;;;;-1.57;82.60;99381.16;1750443;80;98754;-71
2021/12/10 03:47:46;;;;;;;106.67;35.85;;;;;;;-1.57;82.70;99379.41;1750659;79;25730;-71
2021/12/10 03:50:24;;;;;;;106.90;36.70;;;;;;;-1.57;82.68;99375.46;1747737;80;99024;-71
2021/12/10 03:52:50;;;;;;;110.65;37.75;;;;;;;-1.53;82.71;99376.28;1756398;79;25939;-71
2021/12/10 03:55:16;;;;;;;102.67;37.93;;;;;;;-1.52;82.74;99368.38;1736804;80;25833;-71
2021/12/10 03:57:42;;;;;;;115.08;38.05;;;;;;;-1.51;82.72;99350.41;1737914;80;98831;-71
2021/12/10 04:00:10;;;;;;;107.85;38.55;;;;;;;-1.50;82.69;99346.02;1752506;80;33354;-72
2021/12/10 04:02:36;;;;;;;110.57;38.90;;;;;;;-1.52;82.65;99348.67;1716239;81;99104;-72
2021/12/10 04:05:03;;;;;;;106.58;37.15;;;;;;;-1.55;82.65;99347.41;1743805;80;25805;-71
2021/12/10 04:07:30;;;;;;;114.50;38.67;;;;;;;-1.55;82.64;99354.42;1704901;81;25837;-71
2021/12/10 04:09:56;;;;;;;103.60;37.38;;;;;;;-1.57;82.70;99349.64;1750916;80;98762;-71
2021/12/10 04:12:22;;;;;;;112.65;36.68;;;;;;;-1.58;82.64;99349.21;1749082;81;25800;-71
2021/12/10 04:14:51;;;;;;;110.28;40.17;;;;;;;-1.58;82.70;99368.92;1749302;81;98877;-72
2021/12/10 04:17:21;;;;;;;100.25;36.90;;;;;;;-1.57;82.77;99364.09;1745741;80;26552;-71
2021/12/10 04:19:50;;;;;;;104.40;32.87;;;;;;;-1.56;82.70;99357.94;1752266;79;25820;-71
2021/12/10 04:22:18;;;;;;;111.40;39.05;;;;;;;-1.57;82.76;99357.07;1769134;79;98932;-72
2021/12/10 04:24:44;;;;;;;106.52;36.73;;;;;;;-1.55;82.78;99362.30;1771047;79;25842;-71
2021/12/10 04:27:13;;;;;;;103.92;37.10;;;;;;;-1.55;82.77;99361.86;1769690;78;98861;-72
2021/12/10 04:29:40;;;;;;;114.80;40.40;;;;;;;-1.55;82.70;99363.62;1767350;79;25791;-70
2021/12/10 04:32:09;;;;;;;112.32;40.75;;;;;;;-1.57;82.73;99367.58;1767733;79;98891;-71
2021/12/10 04:34:36;;;;;;;112.75;37.00;;;;;;;-1.54;82.78;99360.09;1771907;79;27442;-71
2021/12/10 04:37:06;;;;;;;115.90;41.25;;;;;;;-1.54;82.78;99353.53;1767942;80;26500;-71
2021/12/10 04:39:34;;;;;;;121.75;42.25;;;;;;;-1.55;82.74;99355.73;1768087;79;98924;-70
2021/12/10 04:42:00;;;;;;;125.67;40.55;;;;;;;-1.55;82.81;99363.17;1771254;80;26010;-71
2021/12/10 04:44:28;;;;;;;109.67;38.67;;;;;;;-1.56;82.74;99359.25;1766854;79;99042;-71
2021/12/10 04:46:54;;;;;;;120.70;39.90;;;;;;;-1.55;82.79;99371.50;1762690;80;27472;-71
2021/12/10 04:49:20;;;;;;;117.37;38.33;;;;;;;-1.55;82.81;99366.25;1766791;79;33974;-71
2021/12/10 04:51:51;;;;;;;120.42;38.90;;;;;;;-1.55;82.81;99367.11;1760149;80;98904;-70
2021/12/10 04:54:20;;;;;;;121.00;42.55;;;;;;;-1.60;82.78;99347.92;1768105;80;26617;-71
2021/12/10 04:56:50;;;;;;;121.40;41.60;;;;;;;-1.54;82.85;99355.71;1766321;80;99187;-71
2021/12/10 04:59:17;;;;;;;114.03;40.28;;;;;;;-1.53;82.86;99364.02;1764363;79;27450;-71
2021/12/10 05:01:45;;;;;;;131.32;41.40;;;;;;;-1.53;82.81;99365.33;1764444;80;25994;-71
2021/12/10 05:04:13;;;;;;;126.90;43.38;;;;;;;-1.52;82.89;99361.81;1758544;79;99347;-71
2021/12/10 05:06:40;;;;;;;122.37;38.90;;;;;;;-1.50;82.90;99355.22;1764302;79;26481;-71
2021/12/10 05:09:10;;;;;;;131.67;41.23;;;;;;;-1.50;82.83;99356.53;1762779;80;97946;-70
2021/12/10 05:11:36;;;;;;;121.82;41.75;;;;;;;-1.50;82.92;99360.03;1762252;80;27392;-71
2021/12/10 05:14:05;;;;;;;128.07;42.75;;;;;;;-1.47;82.91;99355.17;1768911;80;25898;-71
2021/12/10 05:16:34;;;;;;;124.40;41.28;;;;;;;-1.47;82.93;99352.55;1761823;80;98996;-71
2021/12/10 05:19:03;;;;;;;123.85;39.33;;;;;;;-1.46;82.92;99340.70;1772589;79;25793;-71
2021/12/10 05:21:33;;;;;;;125.50;42.50;;;;;;;-1.45;82.97;99330.61;1746313;80;99263;-71
2021/12/10 05:24:00;;;;;;;123.50;42.27;;;;;;;-1.44;82.95;99326.22;1747068;80;27458;-71
2021/12/10 05:26:27;;;;;;;124.02;38.92;;;;;;;-1.44;82.96;99323.59;1744435;80;99216;-71
2021/12/10 05:28:54;;;;;;;133.82;44.80;;;;;;;-1.41;82.97;99322.23;1750766;80;25978;-71
2021/12/10 05:31:19;;;;;;;113.32;39.25;;;;;;;-1.42;82.96;99308.22;1750397;80;25856;-71
2021/12/10 05:33:45;;;;;;;126.53;44.40;;;;;;;-1.42;82.88;99300.78;1748728;80;98797;-71
2021/12/10 05:36:11;;;;;;;120.42;42.27;;;;;;;-1.45;82.91;99308.27;1747097;80;28188;-71
2021/12/10 05:38:37;;;;;;;122.90;40.50;;;;;;;-1.45;82.91;99313.97;1738516;80;98956;-71
2021/12/10 05:41:06;;;;;;;128.80;42.67;;;;;;;-1.46;82.89;99318.80;1748391;80;30440;-73
2021/12/10 05:43:34;;;;;;;121.65;41.05;;;;;;;-1.47;82.94;99315.31;1750398;80;26376;-73
2021/12/10 05:46:00;;;;;;;123.22;42.53;;;;;;;-1.44;83.04;99316.58;1758715;79;98873;-73
2021/12/10 05:48:27;;;;;;;113.77;41.68;;;;;;;-1.40;83.06;99325.28;1758126;80;27378;-73
2021/12/10 05:50:53;;;;;;;125.55;43.13;;;;;;;-1.40;83.00;99326.59;1755265;80;99018;-73
2021/12/10 05:53:21;;;;;;;115.05;39.73;;;;;;;-1.38;83.06;99320.86;1760563;80;25876;-71
2021/12/10 05:55:47;;;;;;;126.30;43.28;;;;;;;-1.37;83.00;99316.03;1750731;80;25825;-72
2021/12/10 05:58:14;;;;;;;121.10;43.73;;;;;;;-1.37;83.07;99316.89;1750242;80;98865;-72
2021/12/10 06:01:03;;;;;;;125.38;41.53;;;;;;;-1.35;83.05;99323.44;1755882;80;27455;-71
2021/12/10 06:03:30;;;;;;;118.50;39.92;;;;;;;-1.35;83.06;99317.73;1759262;80;98926;-71
2021/12/10 06:05:59;;;;;;;124.87;44.15;;;;;;;-1.38;82.94;99318.23;1757281;80;26635;-71
2021/12/10 06:08:26;;;;;;;130.12;42.70;;;;;;;-1.39;82.99;99313.88;1753252;80;99656;-71
2021/12/10 06:10:56;;;;;;;129.85;42.05;;;;;;;-1.39;83.07;99318.68;1754065;79;25776;-71
2021/12/10 06:13:23;;;;;;;123.97;40.88;;;;;;;-1.37;83.09;99310.33;1761859;80;27388;-71
2021/12/10 06:15:49;;;;;;;124.62;41.70;;;;;;;-1.37;83.03;99305.52;1747468;80;98863;-71
2021/12/10 06:18:15;;;;;;;119.15;43.55;;;;;;;-1.40;83.00;99305.12;1758322;80;25691;-71
2021/12/10 06:20:46;;;;;;;131.63;45.92;;;;;;;-1.38;83.03;99300.70;1753691;80;99133;-71
2021/12/10 06:23:13;;;;;;;144.43;46.45;;;;;;;-1.40;83.03;99297.23;1762144;79;26541;-72
2021/12/10 06:25:40;;;;;;;117.97;42.05;;;;;;;-1.38;83.13;99293.27;1752392;80;27413;-74
2021/12/10 06:28:08;;;;;;;137.40;46.25;;;;;;;-1.36;83.10;99292.80;1749702;80;98968;-69
2021/12/10 06:30:41;;;;;;;126.50;42.10;;;;;;;-1.36;83.14;99295.42;1757427;80;25771;-71
2021/12/10 06:33:12;;;;;;;121.13;42.88;;;;;;;-1.34;83.12;99294.95;1754061;80;98914;-74
2021/12/10 06:35:42;;;;;;;131.57;44.30;;;;;;;-1.35;83.12;99291.45;1757447;78;26411;-71
2021/12/10 06:38:09;;;;;;;118.13;42.60;;;;;;;-1.33;83.20;99295.38;1776338;78;27388;-72
2021/12/10 06:40:38;;;;;;;125.70;44.08;;;;;;;-1.31;83.16;99300.16;1778803;79;98608;-72
2021/12/10 06:43:05;;;;;;;138.80;42.90;;;;;;;-1.32;83.12;99296.66;1784410;79;26475;-75
2021/12/10 06:45:35;;;;;;;127.55;44.03;;;;;;;-1.32;83.19;99281.34;1784081;79;98910;-72
2021/12/10 06:48:05;;;;;;;120.77;43.42;;;;;;;-1.29;83.19;99285.67;1778543;79;25797;-71
2021/12/10 06:50:37;;;;;;;139.30;44.95;;;;;;;-1.28;83.18;99275.58;1780262;78;98959;-70
2021/12/10 06:53:03;;;;;;;123.87;42.15;;;;;;;-1.29;83.20;99283.91;1769251;79;25884;-70
2021/12/10 06:55:33;;;;;;;126.53;44.40;;;;;;;-1.26;83.22;99290.43;1772548;78;25817;-71
2021/12/10 06:57:59;;;;;;;129.03;43.33;;;;;;;-1.24;83.28;99292.59;1777980;78;99031;-69
2021/12/10 07:00:53;;;;;;;128.15;44.25;;;;;;;-1.22;83.24;99295.19;1781944;78;25897;-70
2021/12/10 07:03:24;;;;;;;130.60;44.05;;;;;;;-1.22;83.25;99305.70;1778954;79;98921;-68
2021/12/10 07:05:53;;;;;;;129.93;44.03;;;;;;;-1.22;83.23;99303.94;1774801;79;25990;-69
2021/12/10 07:08:21;;;;;;;141.85;45.50;;;;;;;-1.20;83.27;99312.67;1768393;79;98926;-73
2021/12/10 07:10:48;;;;;;;127.53;42.23;;;;;;;-1.19;83.25;99310.91;1788190;78;26557;-75
2021/12/10 07:13:15;;;;;;;118.70;43.50;;;;;;;-1.20;83.23;99311.36;1772683;79;25762;-72
2021/12/10 07:15:46;;;;;;;149.45;46.10;;;;;;;-1.20;83.20;99309.17;1777677;78;98815;-76
2021/12/10 07:18:12;;;;;;;127.50;43.83;;;;;;;-1.23;83.19;99304.84;1781479;79;26335;-72
2021/12/10 07:20:41;;;;;;;155.15;49.53;;;;;;;-1.21;83.32;99297.79;1784841;79;99093;-74
2021/12/10 07:23:10;;;;;;;150.62;47.93;;;;;;;-1.19;83.32;99301.70;1787328;79;26229;-75
2021/12/10 07:25:36;;;;;;;142.70;46.20;;;;;;;-1.18;83.34;99295.55;1780219;79;25869;-73
2021/12/10 07:28:02;;;;;;;154.47;50.85;;;;;;;-1.15;83.38;99295.50;1777523;79;98876;-76
2021/12/10 07:30:29;;;;;;;142.75;48.28;;;;;;;-1.15;83.40;99284.53;1779672;79;25924;-74
2021/12/10 07:32:56;;;;;;;136.25;45.78;;;;;;;-1.12;83.37;99282.30;1780373;78;99102;-74
2021/12/10 07:35:22;;;;;;;170.15;50.40;;;;;;;-1.14;83.44;99276.20;1782394;79;26450;-74
2021/12/10 07:37:48;;;;;;;176.15;53.30;;;;;;;-1.15;83.31;99278.41;1783601;79;26472;-74
2021/12/10 07:40:20;;;;;;;170.47;51.05;;;;;;;-1.15;83.34;99274.47;1776447;79;98850;-74
2021/12/10 07:42:48;;;;;;;147.75;48.60;;;;;;;-1.12;83.45;99275.28;1775537;79;26518;-73
2021/12/10 07:45:15;;;;;;;153.62;49.15;;;;;;;-1.07;83.45;99276.06;1783467;79;98791;-75
2021/12/10 07:47:42;;;;;;;155.18;49.73;;;;;;;-1.04;83.37;99275.14;1785300;79;26339;-75
2021/12/10 07:50:14;;;;;;;149.77;47.88;;;;;;;-1.05;83.36;99274.27;1778658;78;25654;-75
2021/12/10 07:52:40;;;;;;;172.40;52.27;;;;;;;-0.96;83.61;99271.92;1774610;79;98707;-75
2021/12/10 07:55:11;;;;;;;168.82;49.15;;;;;;;-0.82;83.73;99274.28;1775353;79;25865;-73
2021/12/10 07:57:37;;;;;;;162.80;52.90;;;;;;;-0.69;83.83;99276.65;1778228;79;98948;-74
2021/12/10 08:00:08;;;;;;;154.72;51.15;;;;;;;-0.57;83.75;99275.53;1767783;79;26353;-73
2021/12/10 08:02:34;;;;;;;183.62;56.15;;;;;;;-0.51;83.73;99278.04;1763593;79;99056;-75
2021/12/10 08:05:00;;;;;;;159.80;52.43;;;;;;;-0.48;83.62;99272.72;1771593;79;27459;-73
2021/12/10 08:07:26;;;;;;;172.65;55.08;;;;;;;-0.48;83.53;99267.90;1772699;78;33205;-75
2021/12/10 08:09:51;;;;;;;175.22;55.58;;;;;;;-0.45;83.58;99260.80;1764251;79;98760;-72
2021/12/10 08:12:19;;;;;;;179.12;55.38;;;;;;;-0.41;83.70;99259.84;1784471;79;26304;-75
2021/12/10 08:14:46;;;;;;;169.68;58.40;;;;;;;-0.32;83.70;99261.86;1780910;79;98985;-72
2021/12/10 08:17:12;;;;;;;168.32;53.33;;;;;;;-0.27;83.65;99267.89;1784141;79;27403;-71
2021/12/10 08:19:38;;;;;;;180.42;56.50;;;;;;;-0.22;83.66;99266.03;1783180;79;25754;-71
2021/12/10 08:22:05;;;;;;;195.30;62.85;;;;;;;-0.23;83.53;99264.30;1785340;79;99446;-71
2021/12/10 08:24:33;;;;;;;193.15;64.22;;;;;;;-0.25;83.49;99266.09;1781496;79;26176;-71
2021/12/10 08:26:59;;;;;;;170.75;57.05;;;;;;;-0.25;83.56;99268.73;1778161;79;99096;-71
2021/12/10 08:29:26;;;;;;;188.37;63.13;;;;;;;-0.29;83.48;99276.28;1779539;79;27371;-71
2021/12/10 08:31:53;;;;;;;169.75;59.40;;;;;;;-0.32;83.51;99275.02;1784652;79;25769;-71
2021/12/10 08:34:19;;;;;;;178.87;57.10;;;;;;;-0.30;83.68;99270.14;1777106;79;98790;-71
2021/12/10 08:36:45;;;;;;;176.30;61.63;;;;;;;-0.30;83.63;99271.91;1778760;79;25740;-71
2021/12/10 08:39:15;;;;;;;166.47;56.92;;;;;;;-0.29;83.71;99272.33;1778423;79;99190;-72
2021/12/10 08:41:41;;;;;;;163.57;53.75;;;;;;;-0.28;83.72;99274.92;1774320;79;27340;-70
2021/12/10 08:44:09;;;;;;;167.98;57.40;;;;;;;-0.31;83.62;99268.86;1774594;79;26059;-74
2021/12/10 08:46:37;;;;;;;187.10;64.42;;;;;;;-0.30;83.71;99274.55;1767774;79;99097;-73
2021/12/10 08:49:05;;;;;;;180.12;63.78;;;;;;;-0.30;83.71;99280.67;1769338;79;26525;-73
2021/12/10 08:51:41;;;;;;;204.50;63.42;;;;;;;-0.31;83.62;99280.26;1765859;79;99315;-73
2021/12/10 08:54:10;;;;;;;187.22;66.07;;;;;;;-0.32;83.65;99278.52;1773977;79;27436;-73
2021/12/10 08:56:37;;;;;;;202.30;63.45;;;;;;;-0.25;83.80;99276.17;1768816;79;99031;-72
2021/12/10 08:59:06;;;;;;;190.12;64.17;;;;;;;-0.21;83.77;99281.80;1777351;78;25794;-73
2021/12/10 09:01:39;;;;;;;184.82;63.30;;;;;;;-0.21;83.78;99289.70;1770520;79;26271;-73
2021/12/10 09:04:08;;;;;;;175.20;58.33;;;;;;;-0.20;83.71;99287.92;1769358;79;98783;-71
2021/12/10 09:06:39;;;;;;;196.50;63.58;;;;;;;-0.23;83.73;99285.36;1775684;79;28023;-70
2021/12/10 09:09:09;;;;;;;180.93;58.55;;;;;;;-0.24;83.77;99288.89;1765279;79;98880;-71
2021/12/10 09:11:37;;;;;;;192.87;60.78;;;;;;;-0.25;83.78;99286.70;1769131;79;26334;-71
2021/12/10 09:14:06;;;;;;;197.90;67.15;;;;;;;-0.24;83.86;99287.13;1767611;79;25847;-74
2021/12/10 09:16:32;;;;;;;172.62;59.60;;;;;;;-0.21;83.85;99289.70;1769601;79;98846;-74
2021/12/10 09:19:02;;;;;;;186.00;61.37;;;;;;;-0.19;83.83;99294.92;1775246;79;28465;-72
2021/12/10 09:21:31;;;;;;;200.20;64.72;;;;;;;-0.20;83.80;99284.84;1783704;79;98881;-72
2021/12/10 09:24:03;;;;;;;193.80;63.15;;;;;;;-0.16;83.85;99290.91;1784390;79;25817;-71
2021/12/10 09:26:27;;;;;;;206.38;63.20;;;;;;;-0.16;83.86;99276.42;1775297;79;99115;-74
2021/12/10 09:28:53;;;;;;;201.02;62.38;;;;;;;-0.13;83.89;99283.81;1781022;79;25847;-72
2021/12/10 09:31:24;;;;;;;202.68;62.83;;;;;;;-0.10;83.88;99285.06;1777705;78;27438;-72
2021/12/10 09:33:47;;;;;;;189.62;63.38;;;;;;;-0.11;83.86;99278.06;1780405;79;98783;-72
2021/12/10 09:36:13;;;;;;;206.17;61.80;;;;;;;-0.07;83.92;99278.86;1783338;79;31003;-72
2021/12/10 09:38:40;;;;;;;199.35;61.77;;;;;;;-0.08;83.84;99274.04;1793447;78;99053;-71
2021/12/10 09:41:09;;;;;;;199.60;64.37;;;;;;;-0.10;83.76;99266.63;1796990;78;25753;-72
2021/12/10 09:43:37;;;;;;;215.10;63.80;;;;;;;-0.07;83.88;99265.69;1791424;77;27439;-71
2021/12/10 09:46:04;;;;;;;197.15;61.90;;;;;;;-0.04;83.85;99255.95;1793129;77;97922;-74
2021/12/10 09:48:31;;;;;;;225.35;67.80;;;;;;;0.00;83.87;99252.80;1796061;77;25712;-73
2021/12/10 09:51:03;;;;;;;211.80;66.22;;;;;;;0.01;83.85;99255.81;1804062;78;98987;-72
2021/12/10 09:53:31;;;;;;;209.60;66.65;;;;;;;0.05;83.86;99246.94;1793911;77;25713;-73
2021/12/10 09:56:00;;;;;;;224.45;69.20;;;;;;;0.09;83.90;99243.78;1796861;78;27443;-74
2021/12/10 09:58:27;;;;;;;226.70;70.92;;;;;;;0.11;83.92;99244.16;1787596;78;98908;-73
2021/12/10 10:01:07;;;;;;;211.70;69.55;;;;;;;0.13;83.92;99234.91;1790544;78;25999;-71
2021/12/10 10:03:38;;;;;;;208.63;65.40;;;;;;;0.17;83.95;99230.84;1791899;78;98724;-72
2021/12/10 10:06:05;;;;;;;208.93;66.15;;;;;;;0.25;83.97;99234.61;1804652;77;25728;-72
2021/12/10 10:08:32;;;;;;;218.70;68.92;;;;;;;0.31;84.02;99233.14;1791991;77;98759;-72
2021/12/10 10:11:06;;;;;;;213.40;70.03;;;;;;;0.41;84.05;99235.97;1799053;78;25768;-72
2021/12/10 10:13:36;;;;;;;227.22;68.62;;;;;;;0.48;84.05;99238.00;1794996;78;27903;-72
2021/12/10 10:16:04;;;;;;;207.18;62.35;;;;;;;0.50;84.01;99240.14;1795174;78;98724;-72
2021/12/10 10:18:34;;;;;;;200.05;58.85;;;;;;;0.51;83.98;99233.97;1792654;77;25823;-72
2021/12/10 10:21:05;;;;;;;201.80;59.77;;;;;;;0.51;83.93;99232.65;1802000;77;98875;-72
2021/12/10 10:23:31;;;;;;;216.35;64.65;;;;;;;0.46;83.85;99235.85;1755981;80;25809;-73
2021/12/10 10:26:02;;;;;;;197.82;61.73;;;;;;;0.44;83.96;99233.25;1736607;80;26710;-72
2021/12/10 10:28:29;;;;;;;180.97;55.75;;;;;;;0.46;84.00;99241.13;1739057;80;98936;-72
2021/12/10 10:31:04;;;;;;;197.80;61.02;;;;;;;0.45;83.94;99238.94;1742228;80;25779;-72
2021/12/10 10:33:34;;;;;;;187.82;57.80;;;;;;;0.42;83.89;99240.78;1756153;80;98688;-72
2021/12/10 10:36:07;;;;;;;191.75;59.85;;;;;;;0.39;83.89;99239.55;1761319;78;25804;-71
2021/12/10 10:38:33;;;;;;;182.37;56.77;;;;;;;0.38;83.92;99245.72;1751876;79;98994;-71
2021/12/10 10:41:04;;;;;;;196.15;60.60;;;;;;;0.38;83.91;99240.45;1760205;79;26369;-71
2021/12/10 10:43:30;;;;;;;188.27;57.65;;;;;;;0.37;83.95;99238.27;1753227;79;26274;-71
2021/12/10 10:45:57;;;;;;;179.75;55.90;;;;;;;0.41;83.96;99235.97;1757334;80;98680;-70
2021/12/10 10:48:26;;;;;;;177.47;57.95;;;;;;;0.43;83.94;99238.56;1750749;80;25758;-71
2021/12/10 10:51:04;;;;;;;168.52;55.10;;;;;;;0.41;83.89;99239.92;1750734;80;98840;-70
2021/12/10 10:53:44;;;;;;;164.60;51.15;;;;;;;0.42;83.93;99240.78;1757882;79;25787;-70
2021/12/10 10:56:15;;;;;;;146.85;49.80;;;;;;;0.46;83.99;99239.81;1760076;79;25695;-72
2021/12/10 10:58:55;;;;;;;;;;;;;;;0.52;83.98;99234.38;1757414;79;98540;-70
2021/12/10 11:01:35;;;;;;;131.37;44.23;;;;;;;0.53;83.90;99233.48;1762186;79;25775;-72
2021/12/10 11:04:14;;;;;;;151.82;48.83;;;;;;;0.51;83.91;99226.06;1753021;79;98701;-70
2021/12/10 11:06:42;;;;;;;158.25;52.03;;;;;;;0.49;83.85;99232.69;1757997;79;26172;-70
2021/12/10 11:09:11;;;;;;;;;;;;;;;0.48;83.89;99227.45;1758456;79;98752;-71
2021/12/10 11:11:41;;;;;;;137.43;44.30;;;;;;;0.48;83.88;99226.14;1760896;79;26953;-71
2021/12/10 11:14:13;;;;;;;155.72;50.65;;;;;;;0.44;83.83;99237.66;1761777;79;26493;-72
2021/12/10 11:16:42;;;;;;;147.90;51.05;;;;;;;0.44;83.88;99239.84;1726793;80;98577;-72
2021/12/10 11:19:19;;;;;;;151.72;51.77;;;;;;;0.46;83.87;99231.45;1738775;80;26655;-71
2021/12/10 11:21:53;;;;;;;147.35;47.62;;;;;;;0.48;83.92;99234.05;1751472;81;98699;-71
2021/12/10 11:24:27;;;;;;;149.93;50.25;;;;;;;0.54;83.94;99229.48;1758935;80;27428;-72
2021/12/10 11:27:08;;;;;;;158.82;48.95;;;;;;;0.54;83.85;99218.08;1748566;79;98864;-70